Time;durP1;ratioP1;P1;durP2;ratioP2;P2;SDS_P1;SDS_P2;PMS_P1;PMS_P2;Temp;Humidity;BMP_temperature;BMP_pressure;BME280_temperature;BME280_humidity;BME280_pressure;Samples;Min_cycle;Max_cycle;Signal;HPM_P1;HPM_P2
2022/09/27 00:00:15;;;;;;;7.70;2.20;;;20.20;68.50;;;;;;4975314;28;20054;-63
2022/09/27 00:02:41;;;;;;;4.25;1.55;;;20.20;68.50;;;;;;4974917;28;20049;-63
2022/09/27 00:05:07;;;;;;;3.55;1.60;;;20.20;68.50;;;;;;4975070;28;20390;-63
2022/09/27 00:07:33;;;;;;;7.28;2.03;;;20.20;68.50;;;;;;4986157;28;20129;-63
2022/09/27 00:09:59;;;;;;;2.95;1.45;;;20.20;68.50;;;;;;4994501;28;20043;-64
2022/09/27 00:12:24;;;;;;;3.47;1.45;;;20.20;68.50;;;;;;4994620;28;20042;-63
2022/09/27 00:14:50;;;;;;;5.32;1.60;;;20.20;68.50;;;;;;4994709;28;20061;-63
2022/09/27 00:17:15;;;;;;;3.55;1.42;;;20.20;68.50;;;;;;4993775;28;20038;-64
2022/09/27 00:19:41;;;;;;;5.50;1.77;;;20.20;68.50;;;;;;4994593;28;20046;-63
2022/09/27 00:22:06;;;;;;;4.07;1.40;;;20.20;68.40;;;;;;4994411;28;20049;-63
2022/09/27 00:24:32;;;;;;;3.78;1.42;;;20.20;68.40;;;;;;4993910;28;20088;-63
2022/09/27 00:26:58;;;;;;;3.85;1.50;;;20.20;68.40;;;;;;4994245;28;20041;-64
2022/09/27 00:29:23;;;;;;;4.38;1.90;;;20.20;68.40;;;;;;4993672;28;20109;-63
2022/09/27 00:31:49;;;;;;;4.18;1.70;;;20.20;68.40;;;;;;4977052;28;20049;-63
2022/09/27 00:34:20;;;;;;;3.72;1.65;;;20.10;68.40;;;;;;4993912;28;20092;-63
2022/09/27 00:36:45;;;;;;;4.78;1.80;;;20.20;68.40;;;;;;4993561;28;20057;-63
2022/09/27 00:39:11;;;;;;;3.22;1.35;;;20.10;68.40;;;;;;4993988;28;20043;-64
2022/09/27 00:41:37;;;;;;;3.83;1.38;;;20.10;68.30;;;;;;4993999;28;20046;-63
2022/09/27 00:44:24;;;;;;;3.10;1.27;;;20.10;68.40;;;;;;4993407;28;20137;-64
2022/09/27 00:47:03;;;;;;;5.97;1.98;;;20.10;68.30;;;;;;4994389;28;20117;-64
2022/09/27 00:49:30;;;;;;;4.20;1.60;;;20.10;68.30;;;;;;4992866;28;20070;-63
2022/09/27 00:51:59;;;;;;;3.75;1.40;;;20.10;68.40;;;;;;4993223;28;20053;-63
2022/09/27 00:54:25;;;;;;;3.05;1.40;;;20.10;68.30;;;;;;4993773;28;20061;-63
2022/09/27 00:56:51;;;;;;;4.32;1.40;;;20.10;68.40;;;;;;4992272;28;20039;-63
2022/09/27 00:59:47;;;;;;;4.03;1.40;;;20.10;68.40;;;;;;4992721;28;20149;-63
2022/09/27 01:02:12;;;;;;;3.55;1.38;;;20.10;68.30;;;;;;4967440;28;20054;-63
2022/09/27 01:04:38;;;;;;;4.10;1.50;;;20.00;68.30;;;;;;4991559;28;20046;-63
2022/09/27 01:07:04;;;;;;;3.17;1.30;;;20.10;68.40;;;;;;4993654;28;20042;-63
2022/09/27 01:09:29;;;;;;;5.50;1.30;;;20.10;68.30;;;;;;4976253;28;20065;-63
2022/09/27 01:12:04;;;;;;;7.80;1.90;;;20.00;68.30;;;;;;4992026;28;20046;-63
2022/09/27 01:14:35;;;;;;;3.70;1.52;;;20.00;68.30;;;;;;4993496;28;20045;-63
2022/09/27 01:17:15;;;;;;;4.22;1.60;;;20.00;68.30;;;;;;4993335;28;20132;-64
2022/09/27 01:20:06;;;;;;;4.53;1.48;;;20.00;68.30;;;;;;4991822;28;20038;-63
2022/09/27 01:22:41;;;;;;;3.92;1.35;;;20.00;68.20;;;;;;4992091;28;20443;-64
2022/09/27 01:25:24;;;;;;;4.50;1.40;;;20.00;68.30;;;;;;4991585;28;20053;-63
2022/09/27 01:28:23;;;;;;;4.10;1.48;;;20.00;68.30;;;;;;4991538;28;20047;-63
2022/09/27 01:31:02;;;;;;;3.10;1.27;;;20.00;68.20;;;;;;4976605;28;20043;-63
2022/09/27 01:33:34;;;;;;;4.55;1.55;;;20.00;68.30;;;;;;4991501;28;20085;-63
2022/09/27 01:36:06;;;;;;;3.20;1.40;;;20.00;68.30;;;;;;4992248;28;20042;-63
2022/09/27 01:38:43;;;;;;;4.10;1.38;;;20.00;68.30;;;;;;4991959;28;20121;-63
2022/09/27 01:41:22;;;;;;;3.03;1.17;;;20.00;68.90;;;;;;4990945;28;20046;-64
2022/09/27 01:43:53;;;;;;;3.42;1.50;;;19.90;68.20;;;;;;4975912;28;20097;-64
2022/09/27 01:46:22;;;;;;;3.65;1.48;;;19.90;68.20;;;;;;4991463;28;20055;-63
2022/09/27 01:48:48;;;;;;;3.45;1.08;;;19.90;68.20;;;;;;4991092;28;20140;-64
2022/09/27 01:51:27;;;;;;;3.65;1.27;;;19.90;68.20;;;;;;4975514;28;20096;-63
2022/09/27 01:53:53;;;;;;;5.25;1.38;;;19.90;68.20;;;;;;4975181;28;20050;-63
2022/09/27 01:56:36;;;;;;;4.53;1.30;;;19.90;68.20;;;;;;4975362;28;20124;-63
2022/09/27 01:59:13;;;;;;;3.33;0.95;;;19.90;68.10;;;;;;4991975;28;20069;-63
2022/09/27 02:01:39;;;;;;;3.42;1.05;;;19.90;68.20;;;;;;4991235;28;20430;-63
2022/09/27 02:04:05;;;;;;;3.63;1.35;;;19.90;68.10;;;;;;4975248;28;20561;-63
2022/09/27 02:06:44;;;;;;;2.80;1.08;;;19.90;68.20;;;;;;4985819;28;20058;-63
2022/09/27 02:09:27;;;;;;;3.53;1.02;;;19.90;68.10;;;;;;5007011;28;20057;-64
2022/09/27 02:11:54;;;;;;;3.00;1.20;;;19.90;68.10;;;;;;5008133;28;20125;-63
2022/09/27 02:14:24;;;;;;;3.17;0.90;;;19.90;68.10;;;;;;4992297;28;20046;-63
2022/09/27 02:16:51;;;;;;;4.53;1.30;;;19.90;68.10;;;;;;5007630;28;20051;-63
2022/09/27 02:19:41;;;;;;;3.33;1.38;;;19.90;68.10;;;;;;4992521;28;20505;-63
2022/09/27 02:22:21;;;;;;;2.38;0.90;;;19.90;68.00;;;;;;4992079;28;20056;-64
2022/09/27 02:24:52;;;;;;;3.95;1.08;;;19.90;68.10;;;;;;5007036;28;20108;-62
2022/09/27 02:27:30;;;;;;;4.22;1.00;;;19.80;68.00;;;;;;4993084;28;20046;-64
2022/09/27 02:30:00;;;;;;;5.30;1.10;;;19.80;67.90;;;;;;4991402;28;20489;-64
2022/09/27 02:32:26;;;;;;;1.73;0.80;;;19.80;68.00;;;;;;4992601;28;20078;-64
2022/09/27 02:34:52;;;;;;;2.28;0.82;;;19.80;68.00;;;;;;5008010;28;20077;-63
2022/09/27 02:37:18;;;;;;;2.88;1.10;;;19.80;68.00;;;;;;5006709;28;20142;-62
2022/09/27 02:39:43;;;;;;;2.25;0.90;;;19.80;68.00;;;;;;5007759;28;20457;-63
2022/09/27 02:42:09;;;;;;;2.85;1.10;;;19.80;68.00;;;;;;5007700;28;20050;-63
2022/09/27 02:44:34;;;;;;;2.63;0.95;;;19.80;68.00;;;;;;4991233;28;20058;-63
2022/09/27 02:47:19;;;;;;;2.45;0.90;;;19.80;68.00;;;;;;4992527;28;20053;-63
2022/09/27 02:50:05;;;;;;;2.78;1.10;;;19.80;67.80;;;;;;4992411;28;20137;-63
2022/09/27 02:53:06;;;;;;;3.17;1.20;;;19.80;67.90;;;;;;4992417;28;20115;-63
2022/09/27 02:55:51;;;;;;;2.45;0.90;;;19.80;67.80;;;;;;5007315;28;20050;-63
2022/09/27 02:58:22;;;;;;;2.78;0.85;;;19.80;67.90;;;;;;4991245;28;20042;-63
2022/09/27 03:00:58;;;;;;;2.38;0.80;;;19.80;67.90;;;;;;4992140;28;20122;-64
2022/09/27 03:03:30;;;;;;;2.33;0.98;;;19.70;67.80;;;;;;5006762;28;20043;-63
2022/09/27 03:06:12;;;;;;;2.58;1.10;;;19.70;67.80;;;;;;5006390;28;20050;-63
2022/09/27 03:08:38;;;;;;;3.10;0.73;;;19.70;67.70;;;;;;4990798;28;20053;-63
2022/09/27 03:11:04;;;;;;;1.77;0.68;;;19.70;67.70;;;;;;4991597;28;20042;-63
2022/09/27 03:13:29;;;;;;;1.75;0.70;;;19.70;67.70;;;;;;4992314;28;20107;-63
2022/09/27 03:15:55;;;;;;;1.73;0.60;;;19.70;67.70;;;;;;5007209;28;20082;-63
2022/09/27 03:18:20;;;;;;;1.88;0.73;;;19.70;67.70;;;;;;4991278;28;20050;-64
2022/09/27 03:20:46;;;;;;;1.60;0.73;;;19.70;67.70;;;;;;4995690;28;20049;-64
2022/09/27 03:23:11;;;;;;;2.15;0.70;;;19.70;67.70;;;;;;4993996;28;20046;-63
2022/09/27 03:25:37;;;;;;;2.28;0.70;;;19.70;67.70;;;;;;4994846;28;20042;-64
2022/09/27 03:28:03;;;;;;;2.63;0.80;;;19.70;67.60;;;;;;4996075;28;20057;-64
2022/09/27 03:30:28;;;;;;;2.90;0.80;;;19.70;67.60;;;;;;4995302;28;20054;-64
2022/09/27 03:32:54;;;;;;;1.30;0.68;;;19.70;67.60;;;;;;4995101;28;20132;-64
2022/09/27 03:35:19;;;;;;;1.80;0.70;;;19.70;67.50;;;;;;4995276;28;20078;-64
2022/09/27 03:37:46;;;;;;;2.13;0.70;;;19.70;67.60;;;;;;4995614;28;20042;-63
2022/09/27 03:40:12;;;;;;;2.40;0.90;;;19.70;67.50;;;;;;4994626;28;20129;-63
2022/09/27 03:42:38;;;;;;;1.30;0.55;;;19.70;67.50;;;;;;4995358;28;20212;-64
2022/09/27 03:45:04;;;;;;;2.50;0.70;;;19.70;67.50;;;;;;4994838;28;20062;-63
2022/09/27 03:47:30;;;;;;;1.65;0.60;;;19.70;67.50;;;;;;4993193;28;20038;-64
2022/09/27 03:49:55;;;;;;;2.80;0.70;;;19.60;67.50;;;;;;4990906;28;20043;-63
2022/09/27 03:52:21;;;;;;;2.28;0.60;;;19.60;67.50;;;;;;4975556;28;20062;-64
2022/09/27 03:54:46;;;;;;;2.75;0.60;;;19.70;67.50;;;;;;4975002;28;20078;-63
2022/09/27 03:57:12;;;;;;;1.45;0.60;;;19.60;67.40;;;;;;4975586;28;20391;-63
2022/09/27 03:59:38;;;;;;;2.30;0.63;;;19.70;67.50;;;;;;4958415;28;20080;-64
2022/09/27 04:02:03;;;;;;;2.38;0.60;;;19.60;67.50;;;;;;4984469;28;20042;-64
2022/09/27 04:04:29;;;;;;;2.28;0.57;;;19.60;67.50;;;;;;4979989;28;20046;-63
2022/09/27 04:06:55;;;;;;;2.00;0.70;;;19.60;67.50;;;;;;4974757;28;20930;-63
2022/09/27 04:09:21;;;;;;;2.30;0.60;;;19.60;67.50;;;;;;4974460;28;20127;-63
2022/09/27 04:11:47;;;;;;;2.63;0.70;;;19.60;67.50;;;;;;4975587;28;20133;-63
2022/09/27 04:14:13;;;;;;;1.73;0.60;;;19.60;67.50;;;;;;4975270;28;20050;-63
2022/09/27 04:16:39;;;;;;;2.58;0.60;;;19.60;67.50;;;;;;4974296;28;20047;-63
2022/09/27 04:19:06;;;;;;;1.65;0.70;;;19.60;67.50;;;;;;4975377;28;20548;-64
2022/09/27 04:21:32;;;;;;;1.83;0.65;;;19.60;67.50;;;;;;4974532;28;20078;-63
2022/09/27 04:23:57;;;;;;;1.38;0.60;;;19.60;67.50;;;;;;4975397;28;20121;-63
2022/09/27 04:26:24;;;;;;;0.55;0.40;;;19.60;67.50;;;;;;4974704;28;20406;-63
2022/09/27 04:28:51;;;;;;;1.48;0.50;;;19.60;67.40;;;;;;4974490;28;20049;-63
2022/09/27 04:31:17;;;;;;;2.70;0.73;;;19.60;67.50;;;;;;4973892;28;20498;-64
2022/09/27 04:33:42;;;;;;;1.85;0.50;;;19.60;67.40;;;;;;4974294;28;20043;-65
2022/09/27 04:36:25;;;;;;;1.23;0.47;;;19.60;67.40;;;;;;4974196;28;20047;-64
2022/09/27 04:39:01;;;;;;;1.95;0.50;;;19.50;67.40;;;;;;4974296;28;20491;-64
2022/09/27 04:41:27;;;;;;;1.42;0.50;;;19.50;67.40;;;;;;4974845;28;20104;-64
2022/09/27 04:43:54;;;;;;;3.25;0.60;;;19.50;67.40;;;;;;4974435;28;20034;-64
2022/09/27 04:46:20;;;;;;;1.63;0.50;;;19.50;67.40;;;;;;4974944;28;20051;-64
2022/09/27 04:48:46;;;;;;;1.73;0.60;;;19.50;67.40;;;;;;4975309;28;20050;-64
2022/09/27 04:51:12;;;;;;;1.52;0.57;;;19.50;67.40;;;;;;4956451;28;20443;-63
2022/09/27 04:53:37;;;;;;;0.75;0.40;;;19.50;67.40;;;;;;4974408;28;20120;-63
2022/09/27 04:56:04;;;;;;;1.60;0.57;;;19.50;67.30;;;;;;4974745;28;20082;-63
2022/09/27 04:58:30;;;;;;;1.52;0.50;;;19.50;67.30;;;;;;4973710;28;20125;-64
2022/09/27 05:00:55;;;;;;;1.60;0.40;;;19.50;67.30;;;;;;4974893;28;20118;-63
2022/09/27 05:03:21;;;;;;;1.98;0.50;;;19.50;67.30;;;;;;4974762;28;20453;-64
2022/09/27 05:05:47;;;;;;;1.30;0.50;;;19.50;67.30;;;;;;4973628;28;20051;-63
2022/09/27 05:08:12;;;;;;;1.15;0.50;;;19.50;67.30;;;;;;4974267;28;20442;-64
2022/09/27 05:10:38;;;;;;;1.42;0.50;;;19.50;67.80;;;;;;4973658;28;20057;-63
2022/09/27 05:13:04;;;;;;;2.83;0.43;;;19.50;67.20;;;;;;4957396;28;20142;-63
2022/09/27 05:15:29;;;;;;;1.58;0.43;;;19.50;67.20;;;;;;4974256;28;20039;-64
2022/09/27 05:17:55;;;;;;;3.53;0.50;;;19.50;67.20;;;;;;4973812;28;20047;-64
2022/09/27 05:20:21;;;;;;;1.88;0.50;;;19.50;67.20;;;;;;4957127;28;20530;-63
2022/09/27 05:22:46;;;;;;;2.47;0.60;;;19.50;67.20;;;;;;4974262;28;20073;-64
2022/09/27 05:25:12;;;;;;;1.90;0.50;;;19.50;67.20;;;;;;4973061;28;20126;-63
2022/09/27 05:27:37;;;;;;;1.65;0.50;;;19.50;67.20;;;;;;4974420;28;20039;-64
2022/09/27 05:30:04;;;;;;;0.93;0.40;;;19.50;67.30;;;;;;4956780;28;20472;-63
2022/09/27 05:32:30;;;;;;;0.95;0.38;;;19.40;67.20;;;;;;4973468;28;20042;-63
2022/09/27 05:34:55;;;;;;;2.05;0.60;;;19.50;67.30;;;;;;4974229;28;20129;-64
2022/09/27 05:37:21;;;;;;;0.95;0.40;;;19.50;67.30;;;;;;4973874;28;20051;-63
2022/09/27 05:39:47;;;;;;;1.27;0.70;;;19.50;67.40;;;;;;4973470;28;20042;-63
2022/09/27 05:42:14;;;;;;;0.40;0.30;;;19.50;67.40;;;;;;4973841;28;20068;-63
2022/09/27 05:44:40;;;;;;;2.85;0.63;;;19.50;67.40;;;;;;4973712;28;20134;-64
2022/09/27 05:47:06;;;;;;;2.05;0.35;;;19.50;67.40;;;;;;4973513;28;20090;-64
2022/09/27 05:49:32;;;;;;;1.70;0.70;;;19.50;67.40;;;;;;4974100;28;20086;-63
2022/09/27 05:51:57;;;;;;;1.13;0.50;;;19.50;67.40;;;;;;4974198;28;20125;-63
2022/09/27 05:54:23;;;;;;;1.17;0.50;;;19.50;67.30;;;;;;4972920;28;20353;-63
2022/09/27 05:56:50;;;;;;;0.73;0.47;;;19.50;67.30;;;;;;4974138;28;20482;-64
2022/09/27 05:59:15;;;;;;;2.33;0.50;;;19.50;67.30;;;;;;4973576;28;20047;-64
2022/09/27 06:01:41;;;;;;;1.90;0.70;;;19.50;67.20;;;;;;4973018;28;20101;-64
2022/09/27 06:04:06;;;;;;;1.60;0.40;;;19.50;67.20;;;;;;4973356;28;20047;-63
2022/09/27 06:06:35;;;;;;;1.08;0.45;;;19.50;67.20;;;;;;4973580;28;20047;-66
2022/09/27 06:09:01;;;;;;;3.10;0.47;;;19.50;67.20;;;;;;4972486;28;20051;-64
2022/09/27 06:11:27;;;;;;;1.02;0.43;;;19.50;67.20;;;;;;4973465;28;20069;-64
2022/09/27 06:13:52;;;;;;;2.38;0.60;;;19.50;67.10;;;;;;4973137;28;20082;-64
2022/09/27 06:16:18;;;;;;;2.03;0.40;;;19.60;67.10;;;;;;4956633;28;20517;-64
2022/09/27 06:18:44;;;;;;;1.33;0.55;;;19.60;67.10;;;;;;4973804;28;20518;-63
2022/09/27 06:21:09;;;;;;;2.70;0.60;;;19.60;67.10;;;;;;4972805;28;20039;-64
2022/09/27 06:23:35;;;;;;;2.45;0.70;;;19.60;67.10;;;;;;4973341;28;20062;-64
2022/09/27 06:26:04;;;;;;;1.70;0.50;;;19.60;67.20;;;;;;4973756;28;20042;-64
2022/09/27 06:28:31;;;;;;;3.75;0.77;;;19.60;67.20;;;;;;4972786;28;20122;-64
2022/09/27 06:30:59;;;;;;;2.60;0.60;;;19.60;67.30;;;;;;4973811;28;20144;-64
2022/09/27 06:33:25;;;;;;;1.35;0.50;;;19.70;67.30;;;;;;4973372;28;20046;-64
2022/09/27 06:35:52;;;;;;;2.50;0.40;;;19.70;67.30;;;;;;4972588;28;20494;-64
2022/09/27 06:38:20;;;;;;;6.07;1.05;;;19.70;67.40;;;;;;4973237;28;20043;-64
2022/09/27 06:40:45;;;;;;;1.77;0.60;;;19.70;67.50;;;;;;4973619;28;20054;-64
2022/09/27 06:43:15;;;;;;;2.00;0.70;;;19.70;67.50;;;;;;4975518;28;20040;-64
2022/09/27 06:45:41;;;;;;;3.88;0.40;;;19.80;67.50;;;;;;4982327;28;20055;-63
2022/09/27 06:48:09;;;;;;;3.88;0.50;;;19.80;67.60;;;;;;4982017;28;20085;-64
2022/09/27 06:50:36;;;;;;;2.90;0.50;;;19.80;67.60;;;;;;4986489;28;20117;-64
2022/09/27 06:53:03;;;;;;;3.75;0.50;;;19.80;67.60;;;;;;4992550;28;20789;-64
2022/09/27 06:55:29;;;;;;;1.65;0.50;;;19.80;67.60;;;;;;4978827;28;20046;-63
2022/09/27 07:00:45;;;;;;;2.88;0.68;;;19.90;67.80;;;;;;4996720;28;20042;-64
2022/09/27 07:03:10;;;;;;;3.03;0.50;;;19.90;67.70;;;;;;4977988;28;20561;-64
2022/09/27 07:05:37;;;;;;;3.10;0.38;;;19.90;67.80;;;;;;4996310;28;20081;-64
2022/09/27 07:08:03;;;;;;;1.35;0.50;;;19.90;67.80;;;;;;4996475;28;20050;-64
2022/09/27 07:10:31;;;;;;;1.50;0.60;;;19.90;67.90;;;;;;4994985;28;20461;-63
2022/09/27 07:12:57;;;;;;;2.75;0.60;;;20.00;68.00;;;;;;4985273;28;20061;-64
2022/09/27 07:15:22;;;;;;;2.80;0.55;;;20.00;68.00;;;;;;4994578;28;20433;-65
2022/09/27 07:17:58;;;;;;;3.65;0.50;;;20.00;68.00;;;;;;4990583;28;20057;-64
2022/09/27 07:20:24;;;;;;;3.50;0.65;;;20.00;68.00;;;;;;4976492;28;20113;-68
2022/09/27 07:22:50;;;;;;;1.50;0.60;;;20.00;67.90;;;;;;4976564;28;20038;-63
2022/09/27 07:25:16;;;;;;;5.90;0.77;;;20.00;68.00;;;;;;4977450;28;20053;-64
2022/09/27 07:27:41;;;;;;;8.18;0.90;;;20.10;68.00;;;;;;4989537;28;20038;-63
2022/09/27 07:30:08;;;;;;;2.08;0.65;;;20.10;68.00;;;;;;4995482;28;20043;-64
2022/09/27 07:32:37;;;;;;;5.15;0.80;;;20.10;68.00;;;;;;4989007;28;20050;-62
2022/09/27 07:35:03;;;;;;;4.70;0.60;;;20.10;68.00;;;;;;4983679;28;20047;-63
2022/09/27 07:37:31;;;;;;;6.32;0.73;;;20.10;68.10;;;;;;4986318;28;20099;-65
2022/09/27 07:39:57;;;;;;;5.05;0.73;;;20.20;68.10;;;;;;4988959;28;20069;-65
2022/09/27 07:42:23;;;;;;;6.60;0.90;;;20.20;68.00;;;;;;4992247;28;20042;-65
2022/09/27 07:44:48;;;;;;;5.13;0.80;;;20.20;68.10;;;;;;4982687;28;20050;-63
2022/09/27 07:47:14;;;;;;;3.00;0.70;;;20.20;68.10;;;;;;4984007;28;20046;-63
2022/09/27 07:49:40;;;;;;;5.25;0.80;;;20.20;68.70;;;;;;4985839;28;20497;-62
2022/09/27 07:52:05;;;;;;;2.88;0.82;;;20.20;68.10;;;;;;4982691;28;20090;-62
2022/09/27 07:54:31;;;;;;;5.05;0.98;;;20.30;68.20;;;;;;4984235;28;20069;-62
2022/09/27 07:56:56;;;;;;;3.67;1.27;;;20.20;68.00;;;;;;4983992;28;20096;-64
2022/09/27 07:59:22;;;;;;;2.50;1.00;;;20.30;67.80;;;;;;4984936;28;20054;-63
2022/09/27 08:01:48;;;;;;;2.85;0.85;;;20.30;67.80;;;;;;4991632;28;20038;-63
2022/09/27 08:04:13;;;;;;;2.60;0.80;;;20.30;67.80;;;;;;4994778;28;20057;-63
2022/09/27 08:06:39;;;;;;;2.50;0.60;;;20.30;67.80;;;;;;4994578;28;20045;-62
2022/09/27 08:09:06;;;;;;;6.53;0.80;;;20.30;67.80;;;;;;4995272;28;20045;-63
2022/09/27 08:11:31;;;;;;;4.05;0.88;;;20.30;67.70;;;;;;4995230;28;20082;-62
2022/09/27 08:13:57;;;;;;;1.65;0.70;;;20.20;67.70;;;;;;4994352;28;20077;-63
2022/09/27 08:16:22;;;;;;;2.65;0.77;;;20.30;67.80;;;;;;4994767;28;20051;-63
2022/09/27 08:18:48;;;;;;;3.00;0.60;;;20.30;67.70;;;;;;4995302;28;20045;-63
2022/09/27 08:21:14;;;;;;;2.45;0.70;;;20.20;67.60;;;;;;4993826;28;20093;-62
2022/09/27 08:23:39;;;;;;;1.58;0.60;;;20.20;67.60;;;;;;4995288;28;20038;-63
2022/09/27 08:26:05;;;;;;;2.90;0.80;;;20.20;67.60;;;;;;4995356;28;20043;-63
2022/09/27 08:28:31;;;;;;;3.03;0.82;;;20.20;67.50;;;;;;4993847;28;20117;-63
2022/09/27 08:31:00;;;;;;;2.55;0.90;;;20.20;67.50;;;;;;4994843;28;20133;-63
2022/09/27 08:33:25;;;;;;;3.20;0.88;;;20.20;67.40;;;;;;4979620;28;20604;-64
2022/09/27 08:35:51;;;;;;;4.32;0.60;;;20.20;67.20;;;;;;4985379;28;20502;-64
2022/09/27 08:38:17;;;;;;;3.60;0.88;;;20.20;67.00;;;;;;4994074;28;20038;-65
2022/09/27 08:40:45;;;;;;;3.15;0.77;;;20.20;66.90;;;;;;4993153;28;20449;-65
2022/09/27 08:43:38;;;;;;;1.25;0.63;;;20.20;66.70;;;;;;4989941;28;20053;-65
2022/09/27 08:46:29;;;;;;;4.90;0.60;;;20.20;66.60;;;;;;4992052;28;20065;-65
2022/09/27 08:49:03;;;;;;;3.75;0.50;;;20.20;66.30;;;;;;4992948;28;20957;-65
2022/09/27 08:51:29;;;;;;;1.95;0.73;;;20.20;66.20;;;;;;4991771;28;20610;-65
2022/09/27 08:54:24;;;;;;;2.78;0.50;;;20.30;66.10;;;;;;4994236;28;20085;-65
2022/09/27 08:56:51;;;;;;;1.77;0.70;;;20.30;65.90;;;;;;4993092;28;20486;-65
2022/09/27 08:59:22;;;;;;;2.40;0.50;;;20.30;65.80;;;;;;4992181;28;20482;-66
2022/09/27 09:01:48;;;;;;;2.08;0.50;;;20.30;65.60;;;;;;4992435;28;20054;-64
2022/09/27 09:04:21;;;;;;;2.63;0.82;;;20.30;65.50;;;;;;4993161;28;20050;-64
2022/09/27 09:07:04;;;;;;;3.22;0.50;;;20.30;65.30;;;;;;4992320;28;20125;-64
2022/09/27 09:09:57;;;;;;;4.03;0.57;;;20.30;65.20;;;;;;4991381;28;20125;-64
2022/09/27 09:15:30;;;;;;;3.20;0.50;;;20.40;64.90;;;;;;4993639;28;20502;-63
2022/09/27 09:18:11;;;;;;;2.80;0.40;;;20.30;64.70;;;;;;4975453;28;20482;-63
2022/09/27 09:20:46;;;;;;;2.40;0.60;;;20.40;64.50;;;;;;4993596;28;20105;-63
2022/09/27 09:23:36;;;;;;;1.98;0.40;;;20.30;64.30;;;;;;4993662;28;20046;-63
2022/09/27 09:26:15;;;;;;;3.35;0.50;;;20.40;64.30;;;;;;4993053;28;20053;-65
2022/09/27 09:29:02;;;;;;;2.92;0.40;;;20.30;64.30;;;;;;4992759;28;20085;-64
2022/09/27 09:31:34;;;;;;;2.63;0.50;;;20.40;64.30;;;;;;4990084;28;20383;-66
2022/09/27 09:34:23;;;;;;;3.08;0.40;;;20.30;64.10;;;;;;4979906;28;20043;-64
2022/09/27 09:36:59;;;;;;;3.28;0.50;;;20.30;64.00;;;;;;4955828;28;20446;-64
2022/09/27 09:39:33;;;;;;;3.97;0.82;;;20.40;64.10;;;;;;4981888;28;20821;-64
2022/09/27 09:42:11;;;;;;;3.33;0.40;;;20.40;64.30;;;;;;4973801;28;20073;-63
2022/09/27 09:44:48;;;;;;;;;;;20.40;64.40;;;;;;4980649;28;20057;-64
2022/09/27 09:47:38;;;;;;;5.63;0.50;;;20.40;64.70;;;;;;4979846;28;20360;-64
2022/09/27 09:50:20;;;;;;;3.88;0.40;;;20.40;64.70;;;;;;4961126;28;20059;-64
2022/09/27 09:53:13;;;;;;;3.50;0.43;;;20.50;64.80;;;;;;4980982;28;20030;-65
2022/09/27 09:55:41;;;;;;;3.50;0.52;;;20.40;64.80;;;;;;4976531;28;20529;-65
2022/09/27 09:58:25;;;;;;;3.08;0.68;;;20.50;64.90;;;;;;4973553;28;20074;-65
2022/09/27 10:00:53;;;;;;;5.10;0.47;;;20.50;65.00;;;;;;4972035;28;20047;-65
2022/09/27 10:03:19;;;;;;;2.25;0.30;;;20.50;64.90;;;;;;4972246;28;20046;-65
2022/09/27 10:05:44;;;;;;;3.10;0.43;;;20.60;65.00;;;;;;4973504;28;20478;-66
2022/09/27 10:08:15;;;;;;;2.45;0.43;;;20.60;65.00;;;;;;4972726;28;20039;-64
2022/09/27 10:10:40;;;;;;;2.45;0.68;;;20.60;65.10;;;;;;4972578;28;20047;-65
2022/09/27 10:13:09;;;;;;;0.80;0.40;;;20.50;65.00;;;;;;4972704;28;20053;-64
2022/09/27 10:15:34;;;;;;;;;;;20.50;65.10;;;;;;4971900;28;20051;-64
2022/09/27 10:18:00;;;;;;;2.33;0.40;;;20.50;65.00;;;;;;4973271;28;19922;-64
2022/09/27 10:20:28;;;;;;;4.55;0.50;;;20.50;65.20;;;;;;4971472;28;20485;-64
2022/09/27 10:22:57;;;;;;;3.72;0.50;;;20.50;65.20;;;;;;4956201;28;20398;-64
2022/09/27 10:25:23;;;;;;;1.27;0.30;;;20.50;65.30;;;;;;4972229;28;20145;-64
2022/09/27 10:27:50;;;;;;;2.85;0.40;;;20.50;65.40;;;;;;4955582;28;20546;-64
2022/09/27 10:30:32;;;;;;;3.92;0.50;;;20.50;65.40;;;;;;4977019;28;20137;-66
2022/09/27 10:33:15;;;;;;;2.97;0.45;;;20.50;65.40;;;;;;4976386;28;20061;-64
2022/09/27 10:35:49;;;;;;;2.42;0.60;;;20.50;65.40;;;;;;4959481;28;20054;-64
2022/09/27 10:38:17;;;;;;;2.10;0.30;;;20.50;65.50;;;;;;4986880;28;20061;-64
2022/09/27 10:40:43;;;;;;;1.73;0.32;;;20.40;65.40;;;;;;4985851;28;20035;-64
2022/09/27 10:43:32;;;;;;;3.45;0.60;;;20.40;65.50;;;;;;4989216;28;20049;-64
2022/09/27 10:46:10;;;;;;;1.92;0.60;;;20.40;65.40;;;;;;4995520;28;20502;-66
2022/09/27 10:48:36;;;;;;;4.70;0.60;;;20.40;65.40;;;;;;4978781;28;20061;-64
2022/09/27 10:51:04;;;;;;;4.05;0.95;;;20.40;65.50;;;;;;4959938;28;20086;-63
2022/09/27 10:53:30;;;;;;;7.00;1.93;;;20.50;65.60;;;;;;4975198;28;20051;-64
2022/09/27 10:55:55;;;;;;;6.53;1.45;;;20.50;65.70;;;;;;4976592;28;20533;-65
2022/09/27 10:58:26;;;;;;;4.75;1.35;;;20.50;66.30;;;;;;4976584;28;20046;-66
2022/09/27 11:01:03;;;;;;;5.93;1.40;;;20.50;65.80;;;;;;4975707;28;20409;-63
2022/09/27 11:03:34;;;;;;;5.63;1.37;;;20.50;65.80;;;;;;4974767;28;20047;-63
2022/09/27 11:06:00;;;;;;;5.82;1.55;;;20.60;65.80;;;;;;4975461;28;20050;-63
2022/09/27 11:08:32;;;;;;;8.50;1.38;;;20.50;65.60;;;;;;4958880;28;20376;-63
2022/09/27 11:11:12;;;;;;;7.20;1.10;;;20.60;65.60;;;;;;4976201;28;20163;-64
2022/09/27 11:13:38;;;;;;;5.53;1.60;;;20.60;65.50;;;;;;4977112;28;20043;-63
2022/09/27 11:16:06;;;;;;;5.72;1.40;;;20.60;65.50;;;;;;4959531;28;20042;-63
2022/09/27 11:18:52;;;;;;;6.18;1.00;;;20.60;65.50;;;;;;4976352;28;20042;-63
2022/09/27 11:21:46;;;;;;;6.25;1.42;;;20.60;65.40;;;;;;4976463;28;20077;-63
2022/09/27 11:24:42;;;;;;;5.75;1.05;;;20.60;65.30;;;;;;4974848;28;20051;-63
2022/09/27 11:27:33;;;;;;;7.55;1.40;;;20.60;65.30;;;;;;4976105;28;20402;-64
2022/09/27 11:30:09;;;;;;;4.55;1.05;;;20.60;65.30;;;;;;4973906;28;20101;-63
2022/09/27 11:32:40;;;;;;;3.70;1.10;;;20.60;65.20;;;;;;4974729;28;20101;-63
2022/09/27 11:35:12;;;;;;;5.18;1.48;;;20.60;65.10;;;;;;4976438;28;20086;-63
2022/09/27 11:37:52;;;;;;;6.63;1.65;;;20.60;65.10;;;;;;4975900;28;20050;-63
2022/09/27 11:40:49;;;;;;;4.55;1.80;;;20.60;65.10;;;;;;4974822;28;20073;-63
2022/09/27 11:43:54;;;;;;;4.30;1.05;;;20.60;65.10;;;;;;4975223;28;20084;-63
2022/09/27 11:46:26;;;;;;;5.72;1.30;;;20.60;65.10;;;;;;4975057;28;20053;-63
2022/09/27 11:49:08;;;;;;;5.15;1.10;;;20.60;65.20;;;;;;4975422;28;20050;-63
2022/09/27 11:51:47;;;;;;;4.05;1.15;;;20.50;65.10;;;;;;4974307;28;20086;-63
2022/09/27 11:54:31;;;;;;;3.28;1.05;;;20.50;65.20;;;;;;4975076;28;20066;-64
2022/09/27 11:57:19;;;;;;;7.88;1.50;;;20.50;65.10;;;;;;4975989;28;20158;-65
2022/09/27 11:59:47;;;;;;;6.90;1.02;;;20.50;65.00;;;;;;4982945;28;20038;-64
2022/09/27 12:02:50;;;;;;;5.93;0.90;;;20.50;65.00;;;;;;4985564;28;20507;-64
2022/09/27 12:05:25;;;;;;;4.93;0.85;;;20.50;65.00;;;;;;4966207;28;20065;-64
2022/09/27 12:08:06;;;;;;;4.82;1.13;;;20.50;65.00;;;;;;4980690;28;20106;-64
2022/09/27 12:10:32;;;;;;;5.47;1.45;;;20.50;65.00;;;;;;4976136;28;20057;-64
2022/09/27 12:12:57;;;;;;;4.15;1.00;;;20.50;65.60;;;;;;4957673;28;20043;-65
2022/09/27 12:15:25;;;;;;;2.78;0.80;;;20.50;65.00;;;;;;4975388;28;20055;-65
2022/09/27 12:17:54;;;;;;;4.03;0.90;;;20.50;65.00;;;;;;4982009;28;20409;-63
2022/09/27 12:20:31;;;;;;;2.55;0.60;;;20.50;65.10;;;;;;4957638;28;20082;-64
2022/09/27 12:23:10;;;;;;;5.18;0.95;;;20.50;65.20;;;;;;4974387;28;20078;-63
2022/09/27 12:25:40;;;;;;;5.28;1.00;;;20.50;65.20;;;;;;4958207;28;20047;-63
2022/09/27 12:28:39;;;;;;;4.03;0.80;;;20.50;65.20;;;;;;4957063;28;20039;-64
2022/09/27 12:31:15;;;;;;;3.17;0.73;;;20.50;65.20;;;;;;4974746;28;20062;-64
2022/09/27 12:34:01;;;;;;;4.95;0.80;;;20.50;65.30;;;;;;4973630;28;20035;-63
2022/09/27 12:36:36;;;;;;;6.05;0.95;;;20.50;65.30;;;;;;4965259;28;20051;-63
2022/09/27 12:39:22;;;;;;;3.08;0.80;;;20.50;65.30;;;;;;4983089;28;20038;-63
2022/09/27 12:41:52;;;;;;;3.42;0.80;;;20.60;65.30;;;;;;4964006;28;20145;-64
2022/09/27 12:44:18;;;;;;;4.63;0.68;;;20.50;65.30;;;;;;4993635;28;20085;-63
2022/09/27 12:46:51;;;;;;;4.32;0.70;;;20.60;65.30;;;;;;4993680;28;20439;-63
2022/09/27 12:49:31;;;;;;;3.72;1.00;;;20.60;65.30;;;;;;4975497;28;20050;-63
2022/09/27 12:51:59;;;;;;;4.15;1.00;;;20.70;65.30;;;;;;4975982;28;20043;-63
2022/09/27 12:55:03;;;;;;;5.53;0.95;;;20.70;65.30;;;;;;4993007;28;20043;-63
2022/09/27 12:57:42;;;;;;;5.10;1.00;;;20.70;65.30;;;;;;4952485;28;20046;-64
2022/09/27 13:00:25;;;;;;;3.00;0.80;;;20.70;65.30;;;;;;4981644;28;20042;-63
2022/09/27 13:03:11;;;;;;;3.00;1.08;;;20.70;65.20;;;;;;4981338;28;20094;-63
2022/09/27 13:06:04;;;;;;;2.42;0.60;;;20.70;65.20;;;;;;4984826;28;20049;-63
2022/09/27 13:08:44;;;;;;;2.80;0.70;;;20.70;65.20;;;;;;4967766;28;20042;-64
2022/09/27 13:11:27;;;;;;;4.03;0.75;;;20.70;65.20;;;;;;4981975;28;20041;-63
2022/09/27 13:13:56;;;;;;;2.40;0.57;;;20.70;65.20;;;;;;4982223;28;20106;-63